Terminal Aerodrome Forecast
Issued by NWS Central Illinois

Home | Current Version | Previous Version | Text Only | Print | Product List | Glossary On
Versions: 1 2 3 4 5 6 7 8 9 10 11 12 13 14 15 16 17 18 19 20 21 22 23 24 25 26 27
000
FTUS43 KILX 211143
TAFSPI
TAF
KSPI 211143Z 2112/2212 14004KT 2SM -RA BR BKN050 OVC100
     FM211400 08005KT 4SM BR VCSH BKN020 OVC050
     FM211600 07005KT 5SM BR SCT020 BKN035
     FM212000 04005KT P6SM SCT050 BKN250
     FM220900 VRB04KT 3SM BR FEW050=

USA.gov is the U.S. government's official web portal to all federal, state and local government web resources and services.